Osservazioni METAR vicini

 

LIRI - Pontecagnano, Italia
Distanza dalla stazione: SSE 20 Km
Dati ricevuti: 19/04/2021 16:50
Dati obsoleti
Molto nuvoloso
Molto nuvoloso
 Vento da SSO
Vento: SSO 15 Km/h
Temperatura: 13 °C
P.to rugiada: 6 °C
Umidità: 63%
Barometro: 1014 hPa
Nuvole: Molto nuvoloso
Visibilità: 10 Km
Dettagli nuvole: Molto nuvoloso 914 m
2021/04/19 14:50 LIRI 191450Z 21008KT 9999 BKN030 13/06 Q1014
LIRN - Napoli/Capodichino, Italia
Distanza dalla stazione: ONO 43 Km
Dati ricevuti: 20/04/2021 06:50
Poco nuvoloso
Poco nuvoloso
 Vento da Variabile
Vento: Variabile 2 Km/h
Temperatura: 6 °C
P.to rugiada: 6 °C
Umidità: 100%
Barometro: 1016 hPa
Nuvole: Poco nuvoloso
Visibilità: 9 Km
Dettagli nuvole: Poco nuvoloso 1372 m
2021/04/20 04:50 LIRN 200450Z VRB01KT 9000 FEW045 06/06 Q1016 NOSIG
 
LIRT - Trevico, Italia
Distanza dalla stazione: NE 46 Km
Dati ricevuti: 20/04/2021 05:55
Nebbia
Nebbia
 Vento da O
Vento: O 17 Km/h
Temperatura: 3 °C
Temperatura vento: -1 °C
P.to rugiada: 2 °C
Umidità: 93%
Barometro: 1013 hPa
Riepilogo: Nebbia
Visibilità: 0 Km
2021/04/20 03:55 LIRT 200355Z 28009KT 0000 FG VV/// 03/02 Q1013 RMK MON INVIS VAL INVIS VIS MIN 0000
LIQC - Isola di Capri, Italia
Distanza dalla stazione: OSO 56 Km
Dati ricevuti: 20/04/2021 04:55
Dati obsoleti
Poco nuvoloso
Poco nuvoloso
 Vento da calmo
Vento: Calma
Temperatura: 11 °C
P.to rugiada: 7 °C
Umidità: 77%
Barometro: 1015 hPa
Nuvole: Poco nuvoloso
Visibilità: 10 Km
Dettagli nuvole: Poco nuvoloso 914 m
2021/04/20 02:55 LIQC 200255Z 00000KT 9999 FEW030 11/07 Q1015 RMK FEW QUK / QUL / VIS MAR 20 KM VIS MIN 9999
 
LIRM - Grazzanise, Italia
Distanza dalla stazione: ONO 68 Km
Dati ricevuti: 20/04/2021 05:55
Poco nuvoloso
Poco nuvoloso
 Vento da Variabile
Vento: Variabile 0 Km/h
Temperatura: 4 °C
P.to rugiada: 3 °C
Umidità: 93%
Barometro: 1015 hPa
Nuvole: Poco nuvoloso
Visibilità: 6 Km
Dettagli nuvole: Poco nuvoloso 2134 m
2021/04/20 03:55 LIRM 200355Z /////KT 6000 FEW070 04/03 Q1015